Time;durP1;ratioP1;P1;durP2;ratioP2;P2;SDS_P1;SDS_P2;PMS_P1;PMS_P2;Temp;Humidity;BMP_temperature;BMP_pressure;BME280_temperature;BME280_humidity;BME280_pressure;Samples;Min_cycle;Max_cycle;Signal;HPM_P1;HPM_P2
2024/02/14 00:00:31;;;;;;;;;;;1.30;99.90;;;;;;5033903;28;19924;-63
2024/02/14 00:03:03;;;;;;;;;;;1.30;99.90;;;;;;5016357;28;19927;-63
2024/02/14 00:05:35;;;;;;;;;;;1.40;99.90;;;;;;5015534;28;19932;-63
2024/02/14 00:08:07;;;;;;;;;;;1.40;99.90;;;;;;5033571;28;19921;-63
2024/02/14 00:10:34;;;;;;;;;;;1.40;99.90;;;;;;5015709;28;20031;-63
2024/02/14 00:13:02;;;;;;;;;;;1.50;99.90;;;;;;5026728;28;20704;-63
2024/02/14 00:15:34;;;;;;;;;;;1.50;99.90;;;;;;5033210;28;19925;-64
2024/02/14 00:18:05;;;;;;;;;;;1.50;99.90;;;;;;5033375;28;19921;-63
2024/02/14 00:20:38;;;;;;;;;;;1.50;99.90;;;;;;5032790;28;19960;-63
2024/02/14 00:23:11;;;;;;;;;;;1.50;99.90;;;;;;5033506;28;19924;-63
2024/02/14 00:25:43;;;;;;;;;;;1.50;99.90;;;;;;5029191;28;20391;-63
2024/02/14 00:28:14;;;;;;;;;;;1.60;99.90;;;;;;5033425;28;19975;-63
2024/02/14 00:30:46;;;;;;;;;;;1.60;99.90;;;;;;5031370;28;19921;-63
2024/02/14 00:33:13;;;;;;;;;;;1.60;99.90;;;;;;5033164;28;20479;-63
2024/02/14 00:35:45;;;;;;;;;;;1.60;99.90;;;;;;5014904;28;20435;-64
2024/02/14 00:38:11;;;;;;;;;;;1.60;99.90;;;;;;5033032;28;20015;-63
2024/02/14 00:40:43;;;;;;;;;;;1.60;99.90;;;;;;5031176;28;19925;-63
2024/02/14 00:43:15;;;;;;;;;;;1.60;99.90;;;;;;5006740;28;19968;-63
2024/02/14 00:45:47;;;;;;;;;;;1.60;99.90;;;;;;5025419;28;19932;-63
2024/02/14 00:48:19;;;;;;;;;;;1.60;99.90;;;;;;5032472;28;20297;-63
2024/02/14 00:50:45;;;;;;;;;;;1.50;99.90;;;;;;5014886;28;20447;-63
2024/02/14 00:53:18;;;;;;;;;;;1.50;99.90;;;;;;5024222;28;19968;-63
2024/02/14 00:55:51;;;;;;;;;;;1.50;99.90;;;;;;5029490;28;20407;-64
2024/02/14 00:58:17;;;;;;;;;;;1.50;99.90;;;;;;5014042;28;19927;-63
2024/02/14 01:00:44;;;;;;;;;;;1.40;99.90;;;;;;5031510;28;20016;-63
2024/02/14 01:03:17;;;;;;;;;;;1.40;99.90;;;;;;5029798;28;19924;-64
2024/02/14 01:05:48;;;;;;;;;;;1.30;99.90;;;;;;5032194;28;19921;-63
2024/02/14 01:08:15;;;;;;;;;;;1.30;99.90;;;;;;4998302;28;20301;-64
2024/02/14 01:10:42;;;;;;;;;;;1.30;99.90;;;;;;5032320;28;20036;-63
2024/02/14 01:13:13;;;;;;;;;;;1.30;99.90;;;;;;4999563;28;19943;-63
2024/02/14 01:15:45;;;;;;;;;;;1.20;99.90;;;;;;5032023;28;19925;-63
2024/02/14 01:18:17;;;;;;;;;;;1.20;99.90;;;;;;5032365;28;19925;-63
2024/02/14 01:20:49;;;;;;;;;;;1.20;99.90;;;;;;5012043;28;20360;-63
2024/02/14 01:23:21;;;;;;;;;;;1.20;99.90;;;;;;5011207;28;19925;-63
2024/02/14 01:25:55;;;;;;;;;;;1.20;99.90;;;;;;5029087;28;19924;-63
2024/02/14 01:28:27;;;;;;;;;;;1.10;99.90;;;;;;5027798;28;19960;-63
2024/02/14 01:30:58;;;;;;;;;;;1.10;99.90;;;;;;5015031;28;20296;-63
2024/02/14 01:33:30;;;;;;;;;;;1.10;99.90;;;;;;5028747;28;19925;-64
2024/02/14 01:36:02;;;;;;;;;;;1.10;99.90;;;;;;5036577;28;20027;-64
2024/02/14 01:38:35;;;;;;;;;;;1.20;99.90;;;;;;5030617;28;19959;-63
2024/02/14 01:41:02;;;;;;;;;;;1.10;99.90;;;;;;5031866;28;19921;-63
2024/02/14 01:43:34;;;;;;;;;;;1.10;99.90;;;;;;5031832;28;19927;-63
2024/02/14 01:46:07;;;;;;;;;;;1.10;99.90;;;;;;5031450;28;19927;-63
2024/02/14 01:48:39;;;;;;;;;;;1.10;99.90;;;;;;5031748;28;20019;-63
2024/02/14 01:51:12;;;;;;;;;;;1.10;99.90;;;;;;5013362;28;20467;-63
2024/02/14 01:53:40;;;;;;;;;;;1.10;99.90;;;;;;5031412;28;20032;-63
2024/02/14 01:56:12;;;;;;;;;;;1.00;99.90;;;;;;5031288;28;19931;-63
2024/02/14 01:58:44;;;;;;;;;;;1.00;99.90;;;;;;5020728;28;19921;-63
2024/02/14 02:01:17;;;;;;;;;;;0.90;99.90;;;;;;5031118;28;19921;-63
2024/02/14 02:03:45;;;;;;;;;;;0.90;99.90;;;;;;5029785;28;19925;-63
2024/02/14 02:06:17;;;;;;;;;;;0.90;99.90;;;;;;5007251;28;19921;-63
2024/02/14 02:08:49;;;;;;;;;;;0.90;99.90;;;;;;5028658;28;20008;-63
2024/02/14 02:11:22;;;;;;;;;;;0.90;99.90;;;;;;5030847;28;19925;-63
2024/02/14 02:13:53;;;;;;;;;;;1.00;99.90;;;;;;5027510;28;19921;-63
2024/02/14 02:16:26;;;;;;;;;;;1.10;99.90;;;;;;4996638;28;20511;-63
2024/02/14 02:18:58;;;;;;;;;;;1.10;99.90;;;;;;5030621;28;19961;-63
2024/02/14 02:21:29;;;;;;;;;;;1.10;99.90;;;;;;5030901;28;19921;-63
2024/02/14 02:24:01;;;;;;;;;;;1.10;99.90;;;;;;5029572;28;19936;-63
2024/02/14 02:26:28;;;;;;;;;;;1.20;99.90;;;;;;5022191;28;20274;-63
2024/02/14 02:29:00;;;;;;;;;;;1.20;99.90;;;;;;5012892;28;20386;-63
2024/02/14 02:31:32;;;;;;;;;;;1.30;99.90;;;;;;5005116;28;19920;-63
2024/02/14 02:33:59;;;;;;;;;;;1.30;99.90;;;;;;5030809;28;19972;-63
2024/02/14 02:36:30;;;;;;;;;;;1.40;99.90;;;;;;5009699;28;19929;-63
2024/02/14 02:38:58;;;;;;;;;;;1.40;99.90;;;;;;5030652;28;19920;-63
2024/02/14 02:41:29;;;;;;;;;;;1.40;99.90;;;;;;5030529;28;19921;-63
2024/02/14 02:44:01;;;;;;;;;;;1.40;99.90;;;;;;5031504;28;19932;-63
2024/02/14 02:46:33;;;;;;;;;;;1.40;99.90;;;;;;5034369;28;20020;-63
2024/02/14 02:49:05;;;;;;;;;;;1.40;99.90;;;;;;5031850;28;19964;-63
2024/02/14 02:51:37;;;;;;;;;;;1.30;99.90;;;;;;5034565;28;19927;-63
2024/02/14 02:54:04;;;;;;;;;;;1.30;99.90;;;;;;5032476;28;19921;-63
2024/02/14 02:56:36;;;;;;;;;;;1.30;99.90;;;;;;5032792;28;19929;-64
2024/02/14 02:59:07;;;;;;;;;;;1.20;99.90;;;;;;5034623;28;20444;-63
2024/02/14 03:01:40;;;;;;;;;;;1.30;99.90;;;;;;5013797;28;19931;-63
2024/02/14 03:04:13;;;;;;;;;;;1.30;99.90;;;;;;5034370;28;20195;-63
2024/02/14 03:06:45;;;;;;;;;;;1.40;99.90;;;;;;5033838;28;19978;-64
2024/02/14 03:09:17;;;;;;;;;;;1.40;99.90;;;;;;5017255;28;19921;-63
2024/02/14 03:11:47;;;;;;;;;;;1.60;99.90;;;;;;5034078;28;20024;-63
2024/02/14 03:14:19;;;;;;;;;;;1.70;99.90;;;;;;5016083;28;19921;-63
2024/02/14 03:16:51;;;;;;;;;;;1.70;99.90;;;;;;5031337;28;20324;-63
2024/02/14 03:19:23;;;;;;;;;;;1.70;99.90;;;;;;5033838;28;19929;-63
2024/02/14 03:21:55;;;;;;;;;;;1.70;99.90;;;;;;5034071;28;20369;-63
2024/02/14 03:24:27;;;;;;;;;;;1.60;99.90;;;;;;5033000;28;20337;-63
2024/02/14 03:26:58;;;;;;;;;;;1.60;99.90;;;;;;5033541;28;20404;-63
2024/02/14 03:29:30;;;;;;;;;;;1.50;99.90;;;;;;5033904;28;20308;-63
2024/02/14 03:32:04;;;;;;;;;;;1.40;99.90;;;;;;5031117;28;19964;-64
2024/02/14 03:34:35;;;;;;;;;;;1.40;99.90;;;;;;5033800;28;19928;-63
2024/02/14 03:37:07;;;;;;;;;;;1.40;99.90;;;;;;5000299;28;19921;-63
2024/02/14 03:39:39;;;;;;;;;;;1.40;99.90;;;;;;5032518;28;20305;-63
2024/02/14 03:42:11;;;;;;;;;;;1.30;99.90;;;;;;5033214;28;19921;-63
2024/02/14 03:44:43;;;;;;;;;;;1.30;99.90;;;;;;5038475;28;19925;-64
2024/02/14 03:47:10;;;;;;;;;;;1.30;99.90;;;;;;5040653;28;19924;-63
2024/02/14 03:49:42;;;;;;;;;;;1.30;99.90;;;;;;5033776;28;20385;-63
2024/02/14 03:52:14;;;;;;;;;;;1.40;99.90;;;;;;5033622;28;20296;-63
2024/02/14 03:54:46;;;;;;;;;;;1.40;99.90;;;;;;5032938;28;19921;-63
2024/02/14 03:57:18;;;;;;;;;;;1.40;99.90;;;;;;5028869;28;19921;-63
2024/02/14 03:59:46;;;;;;;;;;;1.40;99.90;;;;;;5015348;28;19921;-63
2024/02/14 04:02:13;;;;;;;;;;;1.40;99.90;;;;;;5033070;28;20495;-63
2024/02/14 04:04:43;;;;;;;;;;;1.40;99.90;;;;;;5033148;28;19921;-63
2024/02/14 04:07:10;;;;;;;;;;;1.40;99.90;;;;;;5030182;28;19921;-63
2024/02/14 04:09:42;;;;;;;;;;;1.50;99.90;;;;;;5031886;28;19921;-64
2024/02/14 04:12:10;;;;;;;;;;;1.50;99.90;;;;;;5013675;28;19931;-63
2024/02/14 04:14:42;;;;;;;;;;;1.50;99.90;;;;;;5030965;28;19920;-63
2024/02/14 04:17:14;;;;;;;;;;;1.50;99.90;;;;;;5030647;28;20420;-63
2024/02/14 04:19:45;;;;;;;;;;;1.50;99.90;;;;;;5009405;28;20014;-63
2024/02/14 04:22:17;;;;;;;;;;;1.50;99.90;;;;;;5029598;28;19925;-63
2024/02/14 04:24:49;;;;;;;;;;;1.50;99.90;;;;;;5033419;28;20018;-63
2024/02/14 04:27:21;;;;;;;;;;;1.60;99.90;;;;;;5032934;28;19921;-63
2024/02/14 04:29:48;;;;;;;;;;;1.60;99.90;;;;;;5033206;28;19925;-63
2024/02/14 04:32:20;;;;;;;;;;;1.60;99.90;;;;;;5033245;28;19931;-63
2024/02/14 04:34:46;;;;;;;;;;;1.60;99.90;;;;;;5033087;28;19952;-63
2024/02/14 04:37:15;;;;;;;;;;;1.60;99.90;;;;;;5032619;28;19925;-63
2024/02/14 04:39:42;;;;;;;;;;;1.70;99.90;;;;;;5033082;28;19968;-63
2024/02/14 04:42:13;;;;;;;;;;;1.70;99.90;;;;;;5005716;28;19931;-63
2024/02/14 04:44:45;;;;;;;;;;;1.70;99.90;;;;;;5016085;28;20581;-63
2024/02/14 04:47:17;;;;;;;;;;;1.70;99.90;;;;;;5030393;28;19921;-64
2024/02/14 04:49:50;;;;;;;;;;;1.80;99.90;;;;;;5032865;28;19969;-63
2024/02/14 04:52:22;;;;;;;;;;;1.80;99.90;;;;;;5032813;28;20301;-63
2024/02/14 04:54:53;;;;;;;;;;;1.90;99.90;;;;;;5030376;28;19935;-63
2024/02/14 04:57:25;;;;;;;;;;;1.90;99.90;;;;;;5014545;28;20016;-63
2024/02/14 04:59:57;;;;;;;;;;;2.00;99.90;;;;;;5010756;28;20348;-63
2024/02/14 05:02:29;;;;;;;;;;;2.00;99.90;;;;;;5025839;28;20372;-63
2024/02/14 05:05:01;;;;;;;;;;;2.00;99.90;;;;;;5013614;28;20476;-64
2024/02/14 05:07:34;;;;;;;;;;;2.00;99.90;;;;;;5032190;28;19929;-63
2024/02/14 05:10:06;;;;;;;;;;;2.10;99.90;;;;;;5026060;28;19975;-63
2024/02/14 05:12:40;;;;;;;;;;;2.10;99.90;;;;;;5032304;28;19931;-64
2024/02/14 05:15:12;;;;;;;;;;;2.10;99.90;;;;;;5032129;28;19964;-64
2024/02/14 05:17:44;;;;;;;;;;;2.10;99.90;;;;;;5032265;28;19920;-63
2024/02/14 05:20:16;;;;;;;;;;;2.20;99.90;;;;;;5032369;28;19921;-63
2024/02/14 05:22:43;;;;;;;;;;;2.30;99.90;;;;;;5028580;28;20016;-64
2024/02/14 05:25:14;;;;;;;;;;;2.30;99.90;;;;;;5011387;28;19928;-64
2024/02/14 05:27:44;;;;;;;;;;;2.30;99.90;;;;;;5032013;28;20015;-63
2024/02/14 05:30:16;;;;;;;;;;;2.30;99.90;;;;;;5031103;28;20015;-63
2024/02/14 05:32:48;;;;;;;;;;;2.30;99.90;;;;;;5030658;28;19921;-63
2024/02/14 05:35:20;;;;;;;;;;;2.40;99.90;;;;;;4989882;28;19968;-63
2024/02/14 05:37:52;;;;;;;;;;;2.30;99.90;;;;;;5008528;28;19971;-63
2024/02/14 05:40:24;;;;;;;;;;;2.40;99.90;;;;;;5028180;28;19995;-63
2024/02/14 05:42:56;;;;;;;;;;;2.40;99.90;;;;;;5031970;28;19929;-64
2024/02/14 05:45:28;;;;;;;;;;;2.50;99.90;;;;;;5031635;28;20407;-63
2024/02/14 05:47:59;;;;;;;;;;;2.60;99.90;;;;;;5031849;28;20309;-64
2024/02/14 05:50:31;;;;;;;;;;;2.60;99.90;;;;;;5031997;28;20096;-63
2024/02/14 05:53:03;;;;;;;;;;;2.70;99.90;;;;;;5029750;28;19948;-63
2024/02/14 05:55:35;;;;;;;;;;;2.80;99.90;;;;;;5038211;28;19925;-64
2024/02/14 05:58:07;;;;;;;;;;;2.80;99.90;;;;;;5006732;28;19932;-64
2024/02/14 06:00:38;;;;;;;;;;;2.90;99.90;;;;;;5004071;28;19921;-64
2024/02/14 06:03:11;;;;;;;;;;;3.00;99.90;;;;;;5031584;28;20407;-63
2024/02/14 06:05:43;;;;;;;;;;;3.10;99.90;;;;;;5030652;28;19965;-63
2024/02/14 06:08:15;;;;;;;;;;;3.20;99.90;;;;;;5020569;28;20389;-63
2024/02/14 06:10:47;;;;;;;;;;;3.20;99.90;;;;;;5014412;28;20297;-63
2024/02/14 06:13:19;;;;;;;;;;;3.30;99.90;;;;;;5031299;28;19956;-64
2024/02/14 06:15:51;;;;;;;;;;;3.40;99.90;;;;;;5031155;28;19955;-64
2024/02/14 06:18:23;;;;;;;;;;;3.50;99.90;;;;;;5028353;28;20392;-64
2024/02/14 06:20:50;;;;;;;;;;;3.60;99.90;;;;;;5031574;28;20015;-63
2024/02/14 06:23:22;;;;;;;;;;;3.80;99.90;;;;;;5030025;28;19928;-63
2024/02/14 06:25:54;;;;;;;;;;;4.10;99.90;;;;;;5027886;28;19975;-63
2024/02/14 06:28:26;;;;;;;;;;;4.30;99.90;;;;;;5007210;28;20016;-63
2024/02/14 06:30:58;;;;;;;;;;;4.60;99.90;;;;;;5031414;28;19927;-64
2024/02/14 06:33:30;;;;;;;;;;;4.70;99.90;;;;;;5013523;28;19932;-63
2024/02/14 06:36:02;;;;;;;;;;;4.90;99.90;;;;;;5030817;28;19925;-63
2024/02/14 06:38:33;;;;;;;;;;;4.90;99.90;;;;;;5031250;28;19931;-63
2024/02/14 06:41:05;;;;;;;;;;;5.10;99.90;;;;;;5030972;28;19925;-64
2024/02/14 06:43:39;;;;;;;;;;;5.10;99.90;;;;;;5013299;28;20423;-63
2024/02/14 06:46:10;;;;;;;;;;;5.20;99.90;;;;;;5028646;28;19925;-63
2024/02/14 06:48:42;;;;;;;;;;;5.30;99.90;;;;;;5031030;28;19925;-64
2024/02/14 06:51:14;;;;;;;;;;;5.40;99.90;;;;;;5031058;28;20031;-64
2024/02/14 06:53:46;;;;;;;;;;;5.50;99.90;;;;;;5030724;28;19921;-63
2024/02/14 06:56:18;;;;;;;;;;;5.50;99.90;;;;;;5030791;28;19925;-63
2024/02/14 06:58:53;;;;;;;;;;;5.50;99.90;;;;;;5030195;28;19956;-63
2024/02/14 07:01:25;;;;;;;;;;;5.50;99.90;;;;;;5014119;28;19975;-63
2024/02/14 07:03:58;;;;;;;;;;;5.60;99.90;;;;;;5030881;28;19976;-64
2024/02/14 07:06:25;;;;;;;;;;;5.70;99.90;;;;;;5029314;28;20467;-64
2024/02/14 07:08:56;;;;;;;;;;;5.70;99.90;;;;;;5030918;28;20397;-63
2024/02/14 07:11:28;;;;;;;;;;;5.80;99.90;;;;;;5009665;28;19956;-63
2024/02/14 07:14:00;;;;;;;;;;;5.80;99.90;;;;;;5024043;28;20397;-63
2024/02/14 07:16:31;;;;;;;;;;;5.80;99.90;;;;;;5029281;28;19925;-63
2024/02/14 07:19:03;;;;;;;;;;;5.90;99.90;;;;;;5029255;28;19928;-63
2024/02/14 07:21:37;;;;;;;;;;;5.90;99.90;;;;;;5028725;28;19925;-63
2024/02/14 07:24:05;;;;;;;;;;;6.00;99.90;;;;;;5030704;28;20019;-63
2024/02/14 07:26:31;;;;;;;;;;;6.10;99.90;;;;;;5029088;28;19925;-63
2024/02/14 07:29:03;;;;;;;;;;;6.10;99.90;;;;;;5028166;28;20388;-64
2024/02/14 07:31:31;;;;;;;;;;;6.10;99.90;;;;;;5031174;28;19976;-63
2024/02/14 07:34:03;;;;;;;;;;;6.20;99.90;;;;;;5034012;28;19933;-63
2024/02/14 07:36:35;;;;;;;;;;;6.20;99.90;;;;;;5029449;28;19928;-63
2024/02/14 07:39:02;;;;;;;;;;;6.20;99.90;;;;;;5034156;28;19975;-63
2024/02/14 07:41:34;;;;;;;;;;;6.20;99.90;;;;;;5034272;28;19921;-64
2024/02/14 07:44:06;;;;;;;;;;;6.20;99.90;;;;;;5008034;28;19931;-64
2024/02/14 07:46:38;;;;;;;;;;;6.20;99.90;;;;;;5032675;28;20381;-64
2024/02/14 07:49:10;;;;;;;;;;;6.30;99.90;;;;;;5026930;28;19931;-63
2024/02/14 07:51:41;;;;;;;;;;;6.30;99.90;;;;;;5030721;28;19928;-64
2024/02/14 07:54:13;;;;;;;;;;;6.30;99.90;;;;;;5000455;28;19925;-63
2024/02/14 07:56:45;;;;;;;;;;;6.30;99.90;;;;;;5030625;28;19968;-63
2024/02/14 07:59:17;;;;;;;;;;;6.30;99.90;;;;;;5033840;28;20012;-64
2024/02/14 08:01:49;;;;;;;;;;;6.40;99.90;;;;;;5033993;28;19925;-64
2024/02/14 08:04:15;;;;;;;;;;;6.40;99.90;;;;;;5036369;28;19936;-64
2024/02/14 08:06:49;;;;;;;;;;;6.50;99.90;;;;;;5026915;28;19983;-64
2024/02/14 08:09:20;;;;;;;;;;;6.60;99.90;;;;;;5024023;28;19921;-63
2024/02/14 08:11:53;;;;;;;;;;;6.60;99.90;;;;;;5033517;28;19925;-63
2024/02/14 08:14:19;;;;;;;;;;;6.70;99.90;;;;;;5033290;28;19960;-63
2024/02/14 08:16:52;;;;;;;;;;;6.70;99.90;;;;;;5033110;28;19921;-64
2024/02/14 08:19:23;;;;;;;;;;;6.80;99.90;;;;;;5031154;28;19921;-63
2024/02/14 08:21:57;;;;;;;;;;;6.90;99.90;;;;;;5033411;28;19952;-63
2024/02/14 08:24:29;;;;;;;;;;;6.90;99.90;;;;;;5033457;28;19921;-64
2024/02/14 08:27:01;;;;;;;;;;;7.00;99.90;;;;;;5012804;28;19932;-63
2024/02/14 08:29:32;;;;;;;;;;;7.00;99.90;;;;;;5033047;28;20014;-63
2024/02/14 08:32:04;;;;;;;;;;;6.90;99.90;;;;;;5033126;28;20031;-63
2024/02/14 08:34:36;;;;;;;;;;;6.90;99.90;;;;;;5031999;28;20401;-64
2024/02/14 08:37:03;;;;;;;;;;;6.80;99.90;;;;;;5007093;28;19925;-64
2024/02/14 08:39:35;;;;;;;;;;;6.70;99.90;;;;;;4988204;28;20337;-64
2024/02/14 08:42:07;;;;;;;;;;;6.60;99.90;;;;;;5014949;28;20311;-64
2024/02/14 08:44:35;;;;;;;;;;;6.50;99.90;;;;;;5031692;28;19921;-64
2024/02/14 08:47:07;;;;;;;;;;;6.50;99.90;;;;;;5029949;28;19932;-64
2024/02/14 08:49:40;;;;;;;;;;;6.50;99.90;;;;;;5016346;28;20316;-64
2024/02/14 08:52:12;;;;;;;;;;;6.50;99.90;;;;;;5032785;28;19975;-64
2024/02/14 08:54:39;;;;;;;;;;;6.60;99.90;;;;;;5032468;28;19927;-64
2024/02/14 08:57:13;;;;;;;;;;;6.70;99.90;;;;;;5029169;28;20285;-64
2024/02/14 08:59:48;;;;;;;;;;;6.80;99.90;;;;;;5031350;28;19960;-65
2024/02/14 09:02:20;;;;;;;;;;;6.90;99.90;;;;;;5030360;28;19920;-64
2024/02/14 09:04:52;;;;;;;;;;;7.00;99.90;;;;;;5006977;28;19924;-64
2024/02/14 09:07:24;;;;;;;;;;;7.10;99.90;;;;;;5030253;28;19921;-64
2024/02/14 09:09:55;;;;;;;;;;;7.20;99.90;;;;;;4995469;28;19921;-64
2024/02/14 09:12:27;;;;;;;;;;;7.40;99.90;;;;;;5029289;28;19931;-64
2024/02/14 09:14:59;;;;;;;;;;;7.50;99.90;;;;;;5030872;28;19921;-64
2024/02/14 09:17:26;;;;;;;;;;;7.60;99.90;;;;;;5030841;28;20353;-64
2024/02/14 09:19:58;;;;;;;;;;;7.70;99.90;;;;;;5029595;28;19928;-64
2024/02/14 09:22:29;;;;;;;;;;;7.80;99.90;;;;;;5027416;28;19932;-64
2024/02/14 09:25:04;;;;;;;;;;;8.00;99.90;;;;;;5031937;28;20379;-64
2024/02/14 09:27:36;;;;;;;;;;;8.00;99.90;;;;;;5032112;28;20312;-64
2024/02/14 09:30:08;;;;;;;;;;;8.10;99.90;;;;;;5032036;28;19927;-64
2024/02/14 09:32:35;;;;;;;;;;;8.10;99.90;;;;;;5008583;28;20019;-64
2024/02/14 09:35:07;;;;;;;;;;;8.10;99.90;;;;;;5030172;28;19928;-64
2024/02/14 09:37:38;;;;;;;;;;;8.20;99.90;;;;;;5032533;28;19931;-64
2024/02/14 09:40:12;;;;;;;;;;;8.30;99.90;;;;;;5032498;28;19925;-64
2024/02/14 09:42:51;;;;;;;;;;;8.40;99.90;;;;;;5032150;28;20415;-64
2024/02/14 09:45:24;;;;;;;;;;;8.50;99.90;;;;;;5027777;28;20022;-64
2024/02/14 09:47:57;;;;;;;;;;;8.60;99.90;;;;;;5032882;28;20409;-64
2024/02/14 09:50:30;;;;;;;;;;;8.70;99.90;;;;;;5002903;28;20301;-64
2024/02/14 09:53:02;;;;;;;;;;;8.80;99.90;;;;;;5005535;28;20115;-64
2024/02/14 09:55:30;;;;;;;;;;;8.80;99.90;;;;;;5030882;28;19943;-64
2024/02/14 09:58:05;;;;;;;;;;;8.90;99.90;;;;;;5007539;28;19928;-64
2024/02/14 10:00:33;;;;;;;;;;;8.90;99.90;;;;;;5028251;28;20020;-64
2024/02/14 10:03:05;;;;;;;;;;;9.00;99.90;;;;;;5009817;28;20015;-64
2024/02/14 10:05:37;;;;;;;;;;;9.00;99.90;;;;;;5025164;28;20456;-63
2024/02/14 10:08:10;;;;;;;;;;;9.10;99.90;;;;;;5031570;28;20019;-64
2024/02/14 10:10:42;;;;;;;;;;;9.20;99.90;;;;;;5013749;28;19921;-64
2024/02/14 10:13:16;;;;;;;;;;;9.20;99.90;;;;;;5029878;28;19921;-64
2024/02/14 10:15:47;;;;;;;;;;;9.20;99.90;;;;;;5031065;28;20412;-64
2024/02/14 10:18:15;;;;;;;;;;;9.20;99.90;;;;;;5029586;28;20019;-64
2024/02/14 10:20:52;;;;;;;;;;;9.20;99.90;;;;;;5030313;28;20015;-64
2024/02/14 10:23:23;;;;;;;;;;;9.30;99.90;;;;;;5029713;28;19947;-64
2024/02/14 10:25:52;;;;;;;;;;;9.40;99.90;;;;;;5019189;28;20373;-64
2024/02/14 10:28:24;;;;;;;;;;;9.50;99.90;;;;;;5031329;28;19921;-64
2024/02/14 10:30:57;;;;;;;;;;;9.50;99.90;;;;;;5030694;28;19933;-64
2024/02/14 10:33:31;;;;;;;;;;;9.60;99.90;;;;;;5030019;28;20359;-64
2024/02/14 10:36:07;;;;;;;;;;;9.60;99.90;;;;;;5030685;28;19925;-64
2024/02/14 10:38:39;;;;;;;;;;;9.70;99.90;;;;;;5028112;28;19983;-64
2024/02/14 10:41:12;;;;;;;;;;;9.70;99.90;;;;;;5030657;28;20018;-64
2024/02/14 10:43:47;;;;;;;;;;;9.80;99.90;;;;;;5029333;28;19925;-64
2024/02/14 10:46:21;;;;;;;;;;;9.80;99.90;;;;;;5027670;28;19921;-64
2024/02/14 10:48:52;;;;;;;;;;;9.90;99.90;;;;;;5028756;28;20461;-64
2024/02/14 10:51:24;;;;;;;;;;;10.00;99.90;;;;;;5029261;28;19931;-64
2024/02/14 10:53:59;;;;;;;;;;;10.00;99.90;;;;;;5029184;28;20308;-64
2024/02/14 10:56:30;;;;;;;;;;;10.10;99.90;;;;;;5009905;28;20015;-63
2024/02/14 10:59:00;;;;;;;;;;;10.20;99.90;;;;;;5030832;28;20031;-64
2024/02/14 11:01:34;;;;;;;;;;;10.20;99.90;;;;;;5029590;28;20392;-64
2024/02/14 11:04:07;;;;;;;;;;;10.30;99.90;;;;;;5031011;28;19951;-64
2024/02/14 11:06:46;;;;;;;;;;;10.40;99.90;;;;;;5034279;28;19928;-64
2024/02/14 11:09:18;;;;;;;;;;;10.50;99.90;;;;;;5033569;28;19960;-64
2024/02/14 11:11:58;;;;;;;;;;;10.70;99.90;;;;;;5003896;28;20301;-64
2024/02/14 11:14:35;;;;;;;;;;;10.80;99.90;;;;;;5033186;28;19921;-64
2024/02/14 11:17:10;;;;;;;;;;;10.90;99.90;;;;;;5033528;28;19928;-64
2024/02/14 11:19:41;;;;;;;;;;;11.10;99.90;;;;;;5011103;28;19928;-64
2024/02/14 11:22:17;;;;;;;;;;;11.30;99.90;;;;;;5003963;28;19960;-64
2024/02/14 11:24:49;;;;;;;;;;;11.40;99.90;;;;;;5033337;28;20024;-64
2024/02/14 11:27:22;;;;;;;;;;;11.50;99.90;;;;;;5034136;28;19932;-64
2024/02/14 11:29:54;;;;;;;;;;;11.50;99.90;;;;;;5015477;28;19921;-64
2024/02/14 11:32:22;;;;;;;;;;;11.50;99.90;;;;;;5034356;28;19932;-64
2024/02/14 11:34:55;;;;;;;;;;;11.40;99.90;;;;;;5030309;28;20278;-64
2024/02/14 11:37:27;;;;;;;;;;;11.40;99.90;;;;;;5016251;28;19968;-64
2024/02/14 11:40:00;;;;;;;;;;;11.40;99.90;;;;;;5034249;28;19921;-63
2024/02/14 11:42:27;;;;;;;;;;;11.30;99.90;;;;;;5034318;28;19925;-64
2024/02/14 11:44:59;;;;;;;;;;;11.20;99.90;;;;;;5032442;28;19966;-64
2024/02/14 11:47:31;;;;;;;;;;;11.10;99.90;;;;;;5013365;28;19921;-64
2024/02/14 11:50:03;;;;;;;;;;;11.20;99.90;;;;;;5029734;28;19967;-64
2024/02/14 11:52:35;;;;;;;;;;;11.30;99.90;;;;;;5016256;28;19923;-64
2024/02/14 11:55:07;;;;;;;;;;;11.40;99.90;;;;;;5015512;28;19935;-64
2024/02/14 11:57:38;;;;;;;;;;;11.50;99.90;;;;;;5033767;28;19924;-64
2024/02/14 12:00:05;;;;;;;;;;;11.70;99.90;;;;;;5028493;28;19921;-64
2024/02/14 12:02:38;;;;;;;;;;;11.70;99.90;;;;;;5031090;28;20381;-63
2024/02/14 12:05:09;;;;;;;;;;;11.90;99.90;;;;;;5007483;28;19921;-64
2024/02/14 12:07:42;;;;;;;;;;;12.10;99.90;;;;;;5033610;28;20023;-64
2024/02/14 12:10:13;;;;;;;;;;;12.20;99.90;;;;;;5025073;28;20456;-64
2024/02/14 12:12:50;;;;;;;;;;;12.20;99.90;;;;;;5031691;28;19921;-64
2024/02/14 12:15:22;;;;;;;;;;;12.30;99.90;;;;;;5032408;28;19927;-64
2024/02/14 12:17:54;;;;;;;;;;;12.10;99.90;;;;;;5014654;28;20463;-64
2024/02/14 12:20:26;;;;;;;;;;;12.10;99.90;;;;;;5033472;28;20385;-64
2024/02/14 12:22:58;;;;;;;;;;;12.10;99.90;;;;;;5033405;28;19921;-64
2024/02/14 12:25:30;;;;;;;;;;;12.10;99.90;;;;;;5015397;28;19974;-64
2024/02/14 12:27:57;;;;;;;;;;;12.00;99.90;;;;;;5033342;28;20012;-64
2024/02/14 12:30:55;;;;;;;;;;;12.10;99.90;;;;;;5031839;28;20451;-64
2024/02/14 12:33:28;;;;;;;;;;;12.10;99.90;;;;;;5013146;28;20019;-64
2024/02/14 12:36:00;;;;;;;;;;;12.10;99.90;;;;;;5014697;28;19921;-64
2024/02/14 12:38:33;;;;;;;;;;;12.10;99.90;;;;;;5017399;28;20399;-64
2024/02/14 12:41:04;;;;;;;;;;;12.20;99.90;;;;;;5013119;28;19975;-64
2024/02/14 12:43:31;;;;;;;;;;;12.20;99.90;;;;;;5032986;28;20399;-64
2024/02/14 12:46:04;;;;;;;;;;;12.30;99.90;;;;;;5032808;28;19928;-64
2024/02/14 12:48:36;;;;;;;;;;;12.30;99.90;;;;;;5032880;28;19928;-64
2024/02/14 12:51:09;;;;;;;;;;;12.40;99.90;;;;;;5029059;28;19925;-64
2024/02/14 12:53:41;;;;;;;;;;;12.40;99.90;;;;;;5032333;28;19929;-64
2024/02/14 12:56:12;;;;;;;;;;;12.50;99.90;;;;;;5020640;28;19932;-64
2024/02/14 12:58:46;;;;;;;;;;;12.60;99.90;;;;;;5032803;28;19921;-64
2024/02/14 13:01:18;;;;;;;;;;;12.50;99.90;;;;;;5031885;28;19932;-64
2024/02/14 13:03:49;;;;;;;;;;;12.60;99.90;;;;;;5031666;28;19927;-64
2024/02/14 13:06:22;;;;;;;;;;;12.60;99.90;;;;;;5032342;28;20020;-64
2024/02/14 13:08:55;;;;;;;;;;;12.70;99.90;;;;;;5013339;28;19977;-64
2024/02/14 13:11:22;;;;;;;;;;;12.80;99.90;;;;;;5028141;28;20452;-64
2024/02/14 13:13:53;;;;;;;;;;;12.80;99.90;;;;;;5030809;28;19932;-63
2024/02/14 13:16:25;;;;;;;;;;;12.90;99.90;;;;;;5028209;28;19921;-64
2024/02/14 13:18:57;;;;;;;;;;;12.90;99.90;;;;;;5032665;28;19932;-64
2024/02/14 13:21:29;;;;;;;;;;;13.00;99.90;;;;;;5031226;28;19978;-64
2024/02/14 13:23:57;;;;;;;;;;;13.00;99.90;;;;;;5003712;28;19921;-64
2024/02/14 13:26:28;;;;;;;;;;;13.00;99.90;;;;;;5015243;28;20457;-64
2024/02/14 13:29:00;;;;;;;;;;;12.90;99.90;;;;;;5030868;28;19975;-64
2024/02/14 13:31:32;;;;;;;;;;;12.80;99.90;;;;;;5008913;28;19964;-64
2024/02/14 13:34:03;;;;;;;;;;;12.60;99.90;;;;;;5028628;28;20416;-64
2024/02/14 13:36:35;;;;;;;;;;;12.70;99.90;;;;;;5031766;28;19921;-64
2024/02/14 13:39:07;;;;;;;;;;;12.70;99.90;;;;;;5028993;28;20400;-64
2024/02/14 13:41:39;;;;;;;;;;;12.80;99.90;;;;;;4997193;28;19929;-64
2024/02/14 13:44:11;;;;;;;;;;;12.80;99.90;;;;;;5014303;28;20333;-64
2024/02/14 13:46:43;;;;;;;;;;;12.90;99.90;;;;;;5031532;28;20332;-64
2024/02/14 13:49:21;;;;;;;;;;;12.90;99.90;;;;;;5006384;28;20500;-64
2024/02/14 13:51:53;;;;;;;;;;;12.90;99.90;;;;;;5030778;28;20349;-64
2024/02/14 13:54:25;;;;;;;;;;;12.90;99.90;;;;;;5007336;28;20396;-64
2024/02/14 13:56:56;;;;;;;;;;;12.90;99.90;;;;;;5026783;28;20012;-64
2024/02/14 13:59:28;;;;;;;;;;;12.80;99.90;;;;;;5010646;28;20445;-64
2024/02/14 14:02:00;;;;;;;;;;;12.90;99.90;;;;;;5031624;28;19928;-64
2024/02/14 14:04:32;;;;;;;;;;;12.90;99.90;;;;;;5028391;28;19964;-64
2024/02/14 14:07:04;;;;;;;;;;;12.90;99.90;;;;;;5031327;28;19925;-64
2024/02/14 14:09:35;;;;;;;;;;;12.80;99.90;;;;;;5030068;28;19928;-64
2024/02/14 14:12:07;;;;;;;;;;;12.80;99.90;;;;;;5031477;28;19928;-64
2024/02/14 14:14:39;;;;;;;;;;;12.80;99.90;;;;;;5012645;28;19925;-64
2024/02/14 14:17:11;;;;;;;;;;;12.80;99.90;;;;;;5029454;28;19950;-64
2024/02/14 14:19:42;;;;;;;;;;;12.70;99.90;;;;;;5029456;28;20286;-64
2024/02/14 14:22:17;;;;;;;;;;;12.70;99.90;;;;;;5031451;28;19928;-64
2024/02/14 14:24:49;;;;;;;;;;;12.60;99.90;;;;;;5000790;28;19928;-64
2024/02/14 14:27:21;;;;;;;;;;;12.60;99.90;;;;;;5030959;28;19925;-64
2024/02/14 14:29:53;;;;;;;;;;;12.60;99.90;;;;;;5029321;28;20024;-64
2024/02/14 14:32:25;;;;;;;;;;;12.50;99.90;;;;;;5031299;28;20455;-64
2024/02/14 14:34:57;;;;;;;;;;;12.50;99.90;;;;;;5031088;28;19921;-64
2024/02/14 14:37:28;;;;;;;;;;;12.50;99.90;;;;;;5012095;28;19935;-64
2024/02/14 14:40:05;;;;;;;;;;;12.40;99.90;;;;;;5016132;28;20028;-64
2024/02/14 14:42:36;;;;;;;;;;;12.40;99.90;;;;;;5036190;28;19921;-64
2024/02/14 14:45:03;;;;;;;;;;;12.40;99.90;;;;;;5037549;28;19957;-64
2024/02/14 14:47:36;;;;;;;;;;;12.40;99.90;;;;;;5037844;28;20016;-64
2024/02/14 14:50:07;;;;;;;;;;;12.40;99.90;;;;;;5035860;28;19931;-64